Time;durP1;ratioP1;P1;durP2;ratioP2;P2;SDS_P1;SDS_P2;PMS_P1;PMS_P2;Temp;Humidity;BMP_temperature;BMP_pressure;BME280_temperature;BME280_humidity;BME280_pressure;Samples;Min_cycle;Max_cycle;Signal;HPM_P1;HPM_P2
2023/05/10 00:01:23;;;;;;;;;;;16.80;63.00;;;;;;4926265;29;19915;-96
2023/05/10 00:03:48;;;;;;;;;;;16.80;62.60;;;;;;4924688;29;19936;-96
2023/05/10 00:06:14;;;;;;;;;;;16.70;62.90;;;;;;4909142;29;19915;-96
2023/05/10 00:08:40;;;;;;;;;;;16.80;62.90;;;;;;4909746;29;19989;-96
2023/05/10 00:11:06;;;;;;;;;;;16.80;62.90;;;;;;4909230;29;20324;-96
2023/05/10 00:13:31;;;;;;;;;;;16.70;62.80;;;;;;4908878;29;20403;-96
2023/05/10 00:15:57;;;;;;;;;;;16.70;62.50;;;;;;4926217;29;19919;-96
2023/05/10 00:18:23;;;;;;;;;;;16.70;61.70;;;;;;4925657;29;19918;-96
2023/05/10 00:20:49;;;;;;;;;;;16.70;62.40;;;;;;4911361;29;19911;-96
2023/05/10 00:23:15;;;;;;;;;;;16.60;62.20;;;;;;4911879;29;19931;-96
2023/05/10 00:25:41;;;;;;;;;;;16.70;63.10;;;;;;4911185;29;20280;-96
2023/05/10 00:28:06;;;;;;;;;;;16.70;63.30;;;;;;4911612;29;19915;-96
2023/05/10 00:30:32;;;;;;;;;;;16.70;63.40;;;;;;4911461;29;19911;-96
2023/05/10 00:32:57;;;;;;;;;;;16.60;64.00;;;;;;4911183;29;20398;-96
2023/05/10 00:35:23;;;;;;;;;;;16.60;64.00;;;;;;4911073;29;19917;-96
2023/05/10 00:37:49;;;;;;;;;;;16.60;63.50;;;;;;4928473;29;20012;-96
2023/05/10 00:40:15;;;;;;;;;;;16.60;63.60;;;;;;4914373;29;19986;-96
2023/05/10 00:42:41;;;;;;;;;;;16.60;63.30;;;;;;4910141;29;20316;-96
2023/05/10 00:45:09;;;;;;;;;;;16.50;63.80;;;;;;4894696;29;19911;-96
2023/05/10 00:47:35;;;;;;;;;;;16.50;64.00;;;;;;4894947;29;19923;-96
2023/05/10 00:50:01;;;;;;;;;;;16.40;64.10;;;;;;4894329;29;20260;-96
2023/05/10 00:52:27;;;;;;;;;;;16.40;64.00;;;;;;4894773;29;19994;-96
2023/05/10 00:54:53;;;;;;;;;;;16.40;64.00;;;;;;4894945;29;19912;-96
2023/05/10 00:57:19;;;;;;;;;;;16.30;63.90;;;;;;4894538;29;20006;-96
2023/05/10 00:59:45;;;;;;;;;;;16.30;63.70;;;;;;4910534;29;19923;-96
2023/05/10 01:02:12;;;;;;;;;;;16.30;63.40;;;;;;4894185;29;19916;-96
2023/05/10 01:04:38;;;;;;;;;;;16.30;63.90;;;;;;4910049;29;19911;-96
2023/05/10 01:07:06;;;;;;;;;;;16.30;64.10;;;;;;4894212;29;19911;-96
2023/05/10 01:09:32;;;;;;;;;;;16.30;63.70;;;;;;4893361;29;19915;-96
2023/05/10 01:11:58;;;;;;;;;;;16.30;64.40;;;;;;4894117;29;19911;-96
2023/05/10 01:14:26;;;;;;;;;;;16.30;65.00;;;;;;4894548;29;20006;-96
2023/05/10 01:16:53;;;;;;;;;;;16.30;64.50;;;;;;4910040;29;19912;-96
2023/05/10 01:19:23;;;;;;;;;;;16.30;64.70;;;;;;4909513;29;20005;-96
2023/05/10 01:21:57;;;;;;;;;;;16.30;65.40;;;;;;4910414;29;19915;-96
2023/05/10 01:24:41;;;;;;;;;;;16.30;65.40;;;;;;4893218;29;19911;-96
2023/05/10 01:27:10;;;;;;;;;;;16.30;65.30;;;;;;4893945;29;19912;-96
2023/05/10 01:29:59;;;;;;;;;;;16.30;65.80;;;;;;4909250;29;19918;-96
2023/05/10 01:32:30;;;;;;;;;;;16.20;66.00;;;;;;4909530;29;19915;-96
2023/05/10 01:35:16;;;;;;;;;;;16.20;66.30;;;;;;4910166;29;19915;-96
2023/05/10 01:37:45;;;;;;;;;;;16.10;66.00;;;;;;4893637;29;19912;-96
2023/05/10 01:40:24;;;;;;;;;;;16.10;65.90;;;;;;4909711;29;19919;-96
2023/05/10 01:42:53;;;;;;;;;;;16.10;66.30;;;;;;4909848;29;19971;-96
2023/05/10 01:45:28;;;;;;;;;;;16.10;66.60;;;;;;4910013;29;19911;-96
2023/05/10 01:47:59;;;;;;;;;;;16.10;66.60;;;;;;4892969;29;19939;-96
2023/05/10 01:50:29;;;;;;;;;;;16.10;67.00;;;;;;4892904;29;19922;-96
2023/05/10 01:52:56;;;;;;;;;;;16.10;67.20;;;;;;4893114;29;19915;-96
2023/05/10 01:55:27;;;;;;;;;;;16.10;67.30;;;;;;4910132;29;19911;-96
2023/05/10 01:57:58;;;;;;;;;;;16.10;67.60;;;;;;4909402;29;19911;-96
2023/05/10 02:00:24;;;;;;;;;;;16.00;67.30;;;;;;4908534;29;19915;-96
2023/05/10 02:02:51;;;;;;;;;;;16.00;67.40;;;;;;4891587;29;19963;-96
2023/05/10 02:05:17;;;;;;;;;;;15.90;67.70;;;;;;4892819;29;19912;-96
2023/05/10 02:07:43;;;;;;;;;;;15.90;67.40;;;;;;4892101;29;19968;-96
2023/05/10 02:10:10;;;;;;;;;;;16.00;67.20;;;;;;4907958;29;19912;-96
2023/05/10 02:12:37;;;;;;;;;;;15.90;67.60;;;;;;4892182;29;19912;-96
2023/05/10 02:15:05;;;;;;;;;;;16.00;67.00;;;;;;4908518;29;19922;-96
2023/05/10 02:17:32;;;;;;;;;;;16.00;66.90;;;;;;4907164;29;19916;-96
2023/05/10 02:19:59;;;;;;;;;;;15.90;67.20;;;;;;4891053;29;19919;-96
2023/05/10 02:22:26;;;;;;;;;;;15.90;67.20;;;;;;4890915;29;19919;-96
2023/05/10 02:24:52;;;;;;;;;;;15.90;67.40;;;;;;4891266;29;20372;-96
2023/05/10 02:27:19;;;;;;;;;;;15.90;67.30;;;;;;4907372;29;19979;-96
2023/05/10 02:29:46;;;;;;;;;;;15.90;67.10;;;;;;4906040;29;19915;-96
2023/05/10 02:32:12;;;;;;;;;;;15.90;67.10;;;;;;4890206;29;19978;-96
2023/05/10 02:34:38;;;;;;;;;;;15.80;66.60;;;;;;4906410;29;19946;-96
2023/05/10 02:37:05;;;;;;;;;;;15.80;66.90;;;;;;4890909;29;19927;-96
2023/05/10 02:39:32;;;;;;;;;;;15.80;67.00;;;;;;4906728;29;20006;-96
2023/05/10 02:41:58;;;;;;;;;;;15.80;67.10;;;;;;4906079;29;19926;-96
2023/05/10 02:44:25;;;;;;;;;;;15.80;66.80;;;;;;4889021;29;19911;-96
2023/05/10 02:46:50;;;;;;;;;;;15.80;66.70;;;;;;4889843;29;19919;-96
2023/05/10 02:49:16;;;;;;;;;;;15.80;67.30;;;;;;4890214;29;19912;-96
2023/05/10 02:51:44;;;;;;;;;;;15.80;67.20;;;;;;4889914;29;19934;-96
2023/05/10 02:54:12;;;;;;;;;;;15.80;67.40;;;;;;4891314;29;19968;-96
2023/05/10 02:56:42;;;;;;;;;;;15.80;68.00;;;;;;4906441;29;19918;-96
2023/05/10 02:59:08;;;;;;;;;;;15.80;67.80;;;;;;4904771;29;20006;-96
2023/05/10 03:01:34;;;;;;;;;;;15.80;67.80;;;;;;4906132;29;20384;-96
2023/05/10 03:04:00;;;;;;;;;;;15.70;68.00;;;;;;4888400;29;19911;-96
2023/05/10 03:06:26;;;;;;;;;;;15.70;67.70;;;;;;4888436;29;19955;-96
2023/05/10 03:08:51;;;;;;;;;;;15.70;67.90;;;;;;4905395;29;19967;-96
2023/05/10 03:11:17;;;;;;;;;;;15.60;67.60;;;;;;4905015;29;19978;-96
2023/05/10 03:13:56;;;;;;;;;;;15.60;68.50;;;;;;4888041;29;20007;-96
2023/05/10 03:16:26;;;;;;;;;;;15.60;68.30;;;;;;4903954;29;19959;-96
2023/05/10 03:18:55;;;;;;;;;;;15.60;68.50;;;;;;4888447;29;19911;-96
2023/05/10 03:21:23;;;;;;;;;;;15.60;68.70;;;;;;4905272;29;19916;-96
2023/05/10 03:23:57;;;;;;;;;;;15.60;68.70;;;;;;4905073;29;19912;-96
2023/05/10 03:26:26;;;;;;;;;;;15.50;68.60;;;;;;4905025;29;19911;-96
2023/05/10 03:28:52;;;;;;;;;;;15.50;68.50;;;;;;4887707;29;19935;-95
2023/05/10 03:31:18;;;;;;;;;;;15.40;68.70;;;;;;4887762;29;19935;-96
2023/05/10 03:33:48;;;;;;;;;;;15.40;68.50;;;;;;4904609;29;19912;-96
2023/05/10 03:36:13;;;;;;;;;;;15.30;68.60;;;;;;4905476;29;19978;-96
2023/05/10 03:38:39;;;;;;;;;;;15.30;68.70;;;;;;4888341;29;20312;-96
2023/05/10 03:41:05;;;;;;;;;;;15.30;68.50;;;;;;4888362;29;19916;-96
2023/05/10 03:43:31;;;;;;;;;;;15.30;68.80;;;;;;4901882;29;19918;-96
2023/05/10 03:45:56;;;;;;;;;;;15.30;69.00;;;;;;4886781;29;20006;-96
2023/05/10 03:48:22;;;;;;;;;;;15.20;69.10;;;;;;4901874;29;20024;-96
2023/05/10 03:50:49;;;;;;;;;;;15.30;68.90;;;;;;4902715;29;19927;-96
2023/05/10 03:53:15;;;;;;;;;;;15.30;68.70;;;;;;4886497;29;20003;-96
2023/05/10 03:55:40;;;;;;;;;;;15.30;69.00;;;;;;4890594;29;19943;-96
2023/05/10 03:58:06;;;;;;;;;;;15.30;68.50;;;;;;4892952;29;19911;-96
2023/05/10 04:00:32;;;;;;;;;;;15.20;68.30;;;;;;4891695;29;19919;-96
2023/05/10 04:02:58;;;;;;;;;;;15.10;69.20;;;;;;4891769;29;19919;-96
2023/05/10 04:05:23;;;;;;;;;;;15.10;68.50;;;;;;4890603;29;19919;-96
2023/05/10 04:07:50;;;;;;;;;;;14.90;69.20;;;;;;4907990;29;19915;-96
2023/05/10 04:10:16;;;;;;;;;;;14.90;69.80;;;;;;4890710;29;19911;-96
2023/05/10 04:12:42;;;;;;;;;;;14.90;70.30;;;;;;4890751;29;19998;-96
2023/05/10 04:15:08;;;;;;;;;;;14.70;70.10;;;;;;4906109;29;20339;-96
2023/05/10 04:17:33;;;;;;;;;;;14.80;71.00;;;;;;4890635;29;20002;-96
2023/05/10 04:19:59;;;;;;;;;;;14.70;71.80;;;;;;4891028;29;20293;-96
2023/05/10 04:22:25;;;;;;;;;;;14.60;71.70;;;;;;4908126;29;19926;-96
2023/05/10 04:24:50;;;;;;;;;;;14.60;72.00;;;;;;4906941;29;19911;-96
2023/05/10 04:27:16;;;;;;;;;;;14.60;72.00;;;;;;4907582;29;19918;-96
2023/05/10 04:29:42;;;;;;;;;;;14.60;72.80;;;;;;4906965;29;19918;-96
2023/05/10 04:32:09;;;;;;;;;;;14.60;73.00;;;;;;4906377;29;19911;-96
2023/05/10 04:34:44;;;;;;;;;;;14.40;72.60;;;;;;4888968;29;19923;-96
2023/05/10 04:37:10;;;;;;;;;;;14.30;72.10;;;;;;4888535;29;20387;-96
2023/05/10 04:39:36;;;;;;;;;;;14.20;72.70;;;;;;4898400;29;19920;-96
2023/05/10 04:42:02;;;;;;;;;;;14.10;73.60;;;;;;4924498;29;19923;-96
2023/05/10 04:44:29;;;;;;;;;;;14.10;74.10;;;;;;4923521;29;19911;-96
2023/05/10 04:46:55;;;;;;;;;;;14.10;74.30;;;;;;4908368;29;20002;-96
2023/05/10 04:49:21;;;;;;;;;;;14.20;74.10;;;;;;4907852;29;20284;-96
2023/05/10 04:51:47;;;;;;;;;;;14.20;74.20;;;;;;4906678;29;20387;-96
2023/05/10 04:54:12;;;;;;;;;;;14.40;74.50;;;;;;4923706;29;19966;-96
2023/05/10 04:56:38;;;;;;;;;;;14.40;74.30;;;;;;4907668;29;19940;-96
2023/05/10 04:59:04;;;;;;;;;;;14.50;74.40;;;;;;4907431;29;19911;-96
2023/05/10 05:01:29;;;;;;;;;;;14.60;73.50;;;;;;4925370;29;19915;-96
2023/05/10 05:03:55;;;;;;;;;;;14.60;73.80;;;;;;4926037;29;19915;-96
2023/05/10 05:06:20;;;;;;;;;;;14.50;73.80;;;;;;4908519;29;19918;-96
2023/05/10 05:08:46;;;;;;;;;;;14.50;74.70;;;;;;4910145;29;20447;-96
2023/05/10 05:11:12;;;;;;;;;;;14.50;74.50;;;;;;4926698;29;19917;-96
2023/05/10 05:13:38;;;;;;;;;;;14.40;74.00;;;;;;4925528;29;19962;-96
2023/05/10 05:16:04;;;;;;;;;;;14.40;74.50;;;;;;4908046;29;20018;-96
2023/05/10 05:18:30;;;;;;;;;;;14.40;74.50;;;;;;4924888;29;19911;-96
2023/05/10 05:20:56;;;;;;;;;;;14.30;74.80;;;;;;4908279;29;19911;-96
2023/05/10 05:23:24;;;;;;;;;;;14.40;75.40;;;;;;4924952;29;20380;-96
2023/05/10 05:25:53;;;;;;;;;;;14.30;75.50;;;;;;4907692;29;19911;-96
2023/05/10 05:28:20;;;;;;;;;;;14.30;75.20;;;;;;4907857;29;20006;-96
2023/05/10 05:30:46;;;;;;;;;;;14.30;76.20;;;;;;4908206;29;19974;-96
2023/05/10 05:33:13;;;;;;;;;;;14.40;76.10;;;;;;4908217;29;19911;-96
2023/05/10 05:35:39;;;;;;;;;;;14.40;75.00;;;;;;4923103;29;19912;-96
2023/05/10 05:38:05;;;;;;;;;;;14.30;75.90;;;;;;4917591;23;20026;-96
2023/05/10 05:40:31;;;;;;;;;;;14.30;76.20;;;;;;4926376;29;19919;-96
2023/05/10 05:42:57;;;;;;;;;;;14.10;76.50;;;;;;4925785;29;19930;-96
2023/05/10 05:45:22;;;;;;;;;;;13.90;77.10;;;;;;4925878;29;19918;-96
2023/05/10 05:47:48;;;;;;;;;;;13.90;78.10;;;;;;4910423;29;19911;-96
2023/05/10 05:50:14;;;;;;;;;;;13.90;78.70;;;;;;4909996;29;19912;-95
2023/05/10 05:52:39;;;;;;;;;;;13.90;78.80;;;;;;4926370;29;19911;-96
2023/05/10 05:55:05;;;;;;;;;;;13.80;78.70;;;;;;4923602;29;19915;-96
2023/05/10 05:57:31;;;;;;;;;;;13.60;79.40;;;;;;4908608;29;19944;-96
2023/05/10 05:59:59;;;;;;;;;;;13.50;79.70;;;;;;4908686;29;19911;-96
2023/05/10 06:04:58;;;;;;;;;;;13.40;81.10;;;;;;4944093;29;19927;-96
2023/05/10 06:07:24;;;;;;;;;;;13.40;81.40;;;;;;4926826;29;19918;-96
2023/05/10 06:09:49;;;;;;;;;;;13.40;81.70;;;;;;4926271;29;19918;-96
2023/05/10 06:12:15;;;;;;;;;;;13.40;82.10;;;;;;4926692;29;19917;-96
2023/05/10 06:14:40;;;;;;;;;;;13.50;82.10;;;;;;4926869;29;19915;-96
2023/05/10 06:17:06;;;;;;;;;;;13.40;81.90;;;;;;4925069;29;19942;-96
2023/05/10 06:19:32;;;;;;;;;;;13.50;82.40;;;;;;4925324;29;20310;-96
2023/05/10 06:21:58;;;;;;;;;;;13.60;82.50;;;;;;4924947;29;20279;-96
2023/05/10 06:24:23;;;;;;;;;;;13.60;82.60;;;;;;4925157;29;20006;-96
2023/05/10 06:26:49;;;;;;;;;;;13.70;82.70;;;;;;4941288;29;19911;-96
2023/05/10 06:29:15;;;;;;;;;;;13.70;82.20;;;;;;4924928;29;19915;-96
2023/05/10 06:31:41;;;;;;;;;;;13.60;82.60;;;;;;4942065;29;19948;-96
2023/05/10 06:34:07;;;;;;;;;;;13.60;83.10;;;;;;4941014;29;19910;-96
2023/05/10 06:36:36;;;;;;;;;;;13.50;83.20;;;;;;4947941;29;19917;-96
2023/05/10 06:39:05;;;;;;;;;;;13.40;83.70;;;;;;4943146;29;19911;-96
2023/05/10 06:41:35;;;;;;;;;;;13.40;84.60;;;;;;4951678;29;19915;-96
2023/05/10 06:44:03;;;;;;;;;;;13.40;84.80;;;;;;4929403;29;19921;-96
2023/05/10 06:46:29;;;;;;;;;;;13.40;84.70;;;;;;4931915;29;19911;-96
2023/05/10 06:48:55;;;;;;;;;;;13.40;84.80;;;;;;4947927;29;20001;-96
2023/05/10 06:51:21;;;;;;;;;;;13.40;84.70;;;;;;4922137;29;19919;-96
2023/05/10 06:53:47;;;;;;;;;;;13.50;84.50;;;;;;4945166;29;20005;-96
2023/05/10 06:56:12;;;;;;;;;;;13.50;84.50;;;;;;4922036;29;19910;-96
2023/05/10 06:58:38;;;;;;;;;;;13.50;84.60;;;;;;4920984;29;19911;-96
2023/05/10 07:01:04;;;;;;;;;;;13.60;84.80;;;;;;4921775;29;20017;-96
2023/05/10 07:03:30;;;;;;;;;;;13.70;84.20;;;;;;4941304;29;19929;-96
2023/05/10 07:06:01;;;;;;;;;;;13.70;84.30;;;;;;4939833;29;19911;-96
2023/05/10 07:08:26;;;;;;;;;;;13.80;84.40;;;;;;4939450;29;20393;-96
2023/05/10 07:10:52;;;;;;;;;;;13.80;84.10;;;;;;4938652;29;19911;-96
2023/05/10 07:13:18;;;;;;;;;;;13.90;84.20;;;;;;4921941;29;19911;-96
2023/05/10 07:15:44;;;;;;;;;;;13.90;84.30;;;;;;4938451;29;20339;-96
2023/05/10 07:18:10;;;;;;;;;;;13.90;84.60;;;;;;4921745;29;19915;-96
2023/05/10 07:20:36;;;;;;;;;;;13.90;83.80;;;;;;4921301;29;19973;-96
2023/05/10 07:23:02;;;;;;;;;;;13.90;83.50;;;;;;4940248;29;19926;-96
2023/05/10 07:25:27;;;;;;;;;;;13.80;83.80;;;;;;4922711;29;19989;-96
2023/05/10 07:27:53;;;;;;;;;;;13.80;84.50;;;;;;4922290;29;19910;-96
2023/05/10 07:30:19;;;;;;;;;;;13.60;84.60;;;;;;4938327;29;19911;-96
2023/05/10 07:32:45;;;;;;;;;;;13.60;84.80;;;;;;4922224;29;19911;-96
2023/05/10 07:35:11;;;;;;;;;;;13.50;85.10;;;;;;4922550;29;19922;-96
2023/05/10 07:37:37;;;;;;;;;;;13.40;85.40;;;;;;4939041;29;20335;-96
2023/05/10 07:40:04;;;;;;;;;;;13.30;85.70;;;;;;4920836;29;19911;-96
2023/05/10 07:42:30;;;;;;;;;;;13.30;86.00;;;;;;4937117;29;19915;-96
2023/05/10 07:45:01;;;;;;;;;;;13.30;86.20;;;;;;4944068;29;19978;-96
2023/05/10 07:50:14;;;;;;;;;;;13.30;86.70;;;;;;5032189;23;19911;-96
2023/05/10 07:52:50;;;;;;;;;;;13.30;86.90;;;;;;4977393;28;19915;-96
2023/05/10 07:55:21;;;;;;;;;;;13.30;86.40;;;;;;4962681;29;19962;-96
2023/05/10 07:57:47;;;;;;;;;;;13.20;86.70;;;;;;4960945;29;19898;-96
2023/05/10 08:00:22;;;;;;;;;;;13.10;87.20;;;;;;4960548;29;19933;-96
2023/05/10 08:02:52;;;;;;;;;;;13.10;86.90;;;;;;4960333;29;19918;-96
2023/05/10 08:05:22;;;;;;;;;;;13.20;87.40;;;;;;4961733;28;19895;-96
2023/05/10 08:08:02;;;;;;;;;;;13.20;87.40;;;;;;4978158;28;19914;-96
2023/05/10 08:10:30;;;;;;;;;;;13.40;87.70;;;;;;4960867;29;19911;-96
2023/05/10 08:13:03;;;;;;;;;;;13.50;87.50;;;;;;4960144;29;19895;-96
2023/05/10 08:15:29;;;;;;;;;;;13.60;87.20;;;;;;4958547;29;19911;-96
2023/05/10 08:17:55;;;;;;;;;;;13.60;87.00;;;;;;4958538;29;19910;-96
2023/05/10 08:20:21;;;;;;;;;;;13.40;86.80;;;;;;4953965;29;19921;-96
2023/05/10 08:22:48;;;;;;;;;;;13.40;87.20;;;;;;4954472;29;19986;-96
2023/05/10 08:25:14;;;;;;;;;;;13.30;87.20;;;;;;4957036;29;19934;-96
2023/05/10 08:27:40;;;;;;;;;;;13.30;87.70;;;;;;4956884;29;19997;-96
2023/05/10 08:30:08;;;;;;;;;;;13.20;88.10;;;;;;4959680;29;19934;-96
2023/05/10 08:32:35;;;;;;;;;;;13.10;88.10;;;;;;4950264;29;19895;-96
2023/05/10 08:35:01;;;;;;;;;;;13.10;88.30;;;;;;4938013;29;19911;-96
2023/05/10 08:37:30;;;;;;;;;;;13.10;88.00;;;;;;4939076;29;19911;-96
2023/05/10 08:39:59;;;;;;;;;;;13.00;88.30;;;;;;4938819;29;19966;-96
2023/05/10 08:42:30;;;;;;;;;;;13.10;88.70;;;;;;4942419;29;19958;-96
2023/05/10 08:44:58;;;;;;;;;;;13.20;89.00;;;;;;4943753;29;19898;-96
2023/05/10 08:47:31;;;;;;;;;;;13.20;89.00;;;;;;4945060;29;19946;-96
2023/05/10 08:49:57;;;;;;;;;;;13.30;88.90;;;;;;4943365;29;20003;-96
2023/05/10 08:52:32;;;;;;;;;;;13.30;89.00;;;;;;4942194;29;19926;-96
2023/05/10 08:55:07;;;;;;;;;;;13.40;89.00;;;;;;4944148;29;19910;-96
2023/05/10 08:57:33;;;;;;;;;;;13.50;88.80;;;;;;4926882;29;19905;-96
2023/05/10 09:00:02;;;;;;;;;;;13.50;88.80;;;;;;4943173;29;19911;-96
2023/05/10 09:02:45;;;;;;;;;;;13.50;88.50;;;;;;4944864;29;19954;-96
2023/05/10 09:05:15;;;;;;;;;;;13.60;88.60;;;;;;4944280;29;19906;-96
2023/05/10 09:07:41;;;;;;;;;;;13.60;88.70;;;;;;4944640;29;20454;-96
2023/05/10 09:10:08;;;;;;;;;;;13.60;88.90;;;;;;4943468;29;19978;-96
2023/05/10 09:12:35;;;;;;;;;;;13.70;89.00;;;;;;4941772;29;19911;-96
2023/05/10 09:15:03;;;;;;;;;;;13.70;88.90;;;;;;4941524;29;19982;-96
2023/05/10 09:17:29;;;;;;;;;;;13.60;88.60;;;;;;4938849;29;19911;-96
2023/05/10 09:19:59;;;;;;;;;;;13.50;88.90;;;;;;4938118;29;19934;-96
2023/05/10 09:22:25;;;;;;;;;;;13.40;88.60;;;;;;4937306;29;19915;-96
2023/05/10 09:25:04;;;;;;;;;;;13.40;88.90;;;;;;4938868;29;20354;-96
2023/05/10 09:27:30;;;;;;;;;;;13.40;89.20;;;;;;4937411;29;19918;-96
2023/05/10 09:29:57;;;;;;;;;;;13.30;89.20;;;;;;4938086;29;19911;-96
2023/05/10 09:32:35;;;;;;;;;;;13.50;89.90;;;;;;4939395;29;19911;-96
2023/05/10 09:35:06;;;;;;;;;;;13.60;89.60;;;;;;4931143;29;19978;-96
2023/05/10 09:37:32;;;;;;;;;;;13.50;88.40;;;;;;4949597;29;19974;-96
2023/05/10 09:42:41;;;;;;;;;;;13.60;88.60;;;;;;4959364;23;19911;-96
2023/05/10 09:45:11;;;;;;;;;;;13.70;88.50;;;;;;4924004;29;19915;-96
2023/05/10 09:47:46;;;;;;;;;;;13.70;88.40;;;;;;4937171;29;19911;-96
2023/05/10 09:50:12;;;;;;;;;;;13.50;87.80;;;;;;4919083;29;19982;-96
2023/05/10 09:52:50;;;;;;;;;;;13.40;88.10;;;;;;4918575;29;19911;-96
2023/05/10 09:55:19;;;;;;;;;;;13.30;88.70;;;;;;4920066;29;19915;-96
2023/05/10 09:57:46;;;;;;;;;;;13.30;88.90;;;;;;4919835;29;19953;-96
2023/05/10 10:00:16;;;;;;;;;;;13.30;89.30;;;;;;4919718;29;19918;-96
2023/05/10 10:02:48;;;;;;;;;;;13.30;89.50;;;;;;4920745;29;19925;-96
2023/05/10 10:05:27;;;;;;;;;;;13.30;89.90;;;;;;4917974;29;19915;-96
2023/05/10 10:07:54;;;;;;;;;;;13.30;89.40;;;;;;4920406;29;19939;-96
2023/05/10 10:10:20;;;;;;;;;;;13.40;90.10;;;;;;4920416;29;19899;-96
2023/05/10 10:12:46;;;;;;;;;;;13.40;89.40;;;;;;4920682;29;19919;-96
2023/05/10 10:15:13;;;;;;;;;;;13.50;89.70;;;;;;4920060;29;19895;-96
2023/05/10 10:17:39;;;;;;;;;;;13.60;89.20;;;;;;4919290;29;19919;-96
2023/05/10 10:20:06;;;;;;;;;;;13.70;89.30;;;;;;4920269;29;19911;-96
2023/05/10 10:22:32;;;;;;;;;;;13.70;89.20;;;;;;4919780;29;19915;-96
2023/05/10 10:24:58;;;;;;;;;;;13.80;88.70;;;;;;4919802;29;19911;-96
2023/05/10 10:27:41;;;;;;;;;;;13.80;88.40;;;;;;4919066;29;19951;-96
2023/05/10 10:30:07;;;;;;;;;;;13.80;88.10;;;;;;4918880;29;19962;-96
2023/05/10 10:32:57;;;;;;;;;;;13.70;87.80;;;;;;4918738;29;19912;-96
2023/05/10 10:35:26;;;;;;;;;;;13.80;88.30;;;;;;4919110;29;19915;-96
2023/05/10 10:37:53;;;;;;;;;;;13.90;88.40;;;;;;4919599;29;20376;-96
2023/05/10 10:40:37;;;;;;;;;;;13.90;88.20;;;;;;4918445;29;19912;-96
2023/05/10 10:43:26;;;;;;;;;;;13.90;88.00;;;;;;4918352;29;19934;-96
2023/05/10 10:46:16;;;;;;;;;;;13.90;88.10;;;;;;4918288;29;19912;-96
2023/05/10 10:48:51;;;;;;;;;;;13.90;88.70;;;;;;4918459;29;19907;-96
2023/05/10 10:51:17;;;;;;;;;;;14.00;88.70;;;;;;4918789;29;19977;-96
2023/05/10 10:53:43;;;;;;;;;;;14.10;88.60;;;;;;4918973;29;19916;-96
2023/05/10 10:56:11;;;;;;;;;;;14.10;88.80;;;;;;4919589;29;19911;-96
2023/05/10 10:58:51;;;;;;;;;;;14.10;88.90;;;;;;4918633;29;19918;-96
2023/05/10 11:01:17;;;;;;;;;;;14.20;89.10;;;;;;4919218;29;20372;-96
2023/05/10 11:04:02;;;;;;;;;;;14.20;89.10;;;;;;4919005;29;19915;-96
2023/05/10 11:06:32;;;;;;;;;;;14.30;89.40;;;;;;4919793;29;19911;-96
2023/05/10 11:09:05;;;;;;;;;;;14.40;88.90;;;;;;4920198;29;19912;-96
2023/05/10 11:11:31;;;;;;;;;;;14.40;88.80;;;;;;4919703;29;19911;-96
2023/05/10 11:14:06;;;;;;;;;;;14.40;88.80;;;;;;4919425;29;19911;-96
2023/05/10 11:16:42;;;;;;;;;;;14.60;88.30;;;;;;4919756;29;19911;-96
2023/05/10 11:19:11;;;;;;;;;;;14.70;87.60;;;;;;4918789;29;19911;-96
2023/05/10 11:21:51;;;;;;;;;;;14.70;87.50;;;;;;4919207;29;19939;-96
2023/05/10 11:24:19;;;;;;;;;;;14.70;87.70;;;;;;4920209;29;19911;-96
2023/05/10 11:26:47;;;;;;;;;;;14.90;87.90;;;;;;4920192;29;19981;-96
2023/05/10 11:29:19;;;;;;;;;;;14.80;87.30;;;;;;4917837;29;19918;-96
2023/05/10 11:31:46;;;;;;;;;;;14.80;86.90;;;;;;4917109;29;19995;-96
2023/05/10 11:34:25;;;;;;;;;;;14.80;87.70;;;;;;4920691;29;19978;-96
2023/05/10 11:37:06;;;;;;;;;;;14.80;88.20;;;;;;4940378;29;19922;-96
2023/05/10 11:39:35;;;;;;;;;;;14.80;88.00;;;;;;4924904;29;19911;-96
2023/05/10 11:42:11;;;;;;;;;;;14.90;87.80;;;;;;4935348;29;19911;-96
2023/05/10 11:44:48;;;;;;;;;;;14.80;87.70;;;;;;4943769;29;19911;-96
2023/05/10 11:47:31;;;;;;;;;;;14.90;88.00;;;;;;4943999;29;19914;-96
2023/05/10 11:50:01;;;;;;;;;;;14.90;88.40;;;;;;4942652;29;19918;-96
2023/05/10 11:52:35;;;;;;;;;;;14.70;87.70;;;;;;4941141;29;19986;-96
2023/05/10 11:55:02;;;;;;;;;;;14.70;87.90;;;;;;4941216;29;19911;-96
2023/05/10 11:57:31;;;;;;;;;;;14.70;88.00;;;;;;4942648;29;19940;-96
2023/05/10 12:00:02;;;;;;;;;;;14.60;88.10;;;;;;4942211;29;19907;-96
2023/05/10 12:02:31;;;;;;;;;;;14.50;88.30;;;;;;4942729;29;19919;-96
2023/05/10 12:05:02;;;;;;;;;;;14.40;88.40;;;;;;4942114;29;20009;-96
2023/05/10 12:07:32;;;;;;;;;;;14.40;88.40;;;;;;4940337;29;19917;-96
2023/05/10 12:10:17;;;;;;;;;;;14.40;88.40;;;;;;4939450;29;19935;-96
2023/05/10 12:12:45;;;;;;;;;;;14.40;88.60;;;;;;4939848;29;19915;-96
2023/05/10 12:15:20;;;;;;;;;;;14.40;88.70;;;;;;4941066;29;19926;-96
2023/05/10 12:17:53;;;;;;;;;;;14.50;88.80;;;;;;4943612;29;19935;-96
2023/05/10 12:20:21;;;;;;;;;;;14.50;89.00;;;;;;4942444;29;19898;-96
2023/05/10 12:23:03;;;;;;;;;;;14.50;89.20;;;;;;4945528;29;19950;-96
2023/05/10 12:25:35;;;;;;;;;;;14.60;89.40;;;;;;4960721;29;19911;-96
2023/05/10 12:28:09;;;;;;;;;;;14.60;89.40;;;;;;4944252;29;19962;-96
2023/05/10 12:30:40;;;;;;;;;;;14.60;89.60;;;;;;4944563;29;19966;-96
2023/05/10 12:33:11;;;;;;;;;;;14.60;89.60;;;;;;4945472;29;19911;-96
2023/05/10 12:35:54;;;;;;;;;;;14.70;89.80;;;;;;4946151;29;19895;-96
2023/05/10 12:38:34;;;;;;;;;;;14.60;89.80;;;;;;4960602;28;19921;-96
2023/05/10 12:41:09;;;;;;;;;;;14.60;89.60;;;;;;4942843;29;19979;-96
2023/05/10 12:43:45;;;;;;;;;;;14.60;89.30;;;;;;5062856;23;19942;-96
2023/05/10 12:46:12;;;;;;;;;;;14.70;89.60;;;;;;4960261;29;19926;-96
2023/05/10 12:48:40;;;;;;;;;;;14.60;89.70;;;;;;4959963;29;20355;-96
2023/05/10 12:51:09;;;;;;;;;;;14.70;89.50;;;;;;4955492;29;19911;-96
2023/05/10 12:53:41;;;;;;;;;;;14.70;89.50;;;;;;4961291;29;19914;-96
2023/05/10 12:56:07;;;;;;;;;;;14.70;89.70;;;;;;4957822;29;19918;-96
2023/05/10 12:58:41;;;;;;;;;;;14.60;89.50;;;;;;4976713;29;19911;-96
2023/05/10 13:01:09;;;;;;;;;;;14.50;89.60;;;;;;4950440;29;19911;-96
2023/05/10 13:03:43;;;;;;;;;;;14.40;90.10;;;;;;4953717;29;19923;-96
2023/05/10 13:06:09;;;;;;;;;;;14.40;90.10;;;;;;4976095;28;19911;-96
2023/05/10 13:08:41;;;;;;;;;;;14.40;90.30;;;;;;4960167;29;19915;-96
2023/05/10 13:11:25;;;;;;;;;;;14.40;90.50;;;;;;4980636;29;19914;-96
2023/05/10 13:14:03;;;;;;;;;;;14.40;90.10;;;;;;4960915;29;19899;-96
2023/05/10 13:16:43;;;;;;;;;;;14.40;90.30;;;;;;4963909;28;19959;-96
2023/05/10 13:19:32;;;;;;;;;;;14.40;89.80;;;;;;4978394;28;19922;-96
2023/05/10 13:22:02;;;;;;;;;;;14.40;89.50;;;;;;4963322;29;19918;-96
2023/05/10 13:24:31;;;;;;;;;;;14.40;89.70;;;;;;4948144;28;19899;-96
2023/05/10 13:27:29;;;;;;;;;;;14.40;89.70;;;;;;4981277;28;19954;-96
2023/05/10 13:29:59;;;;;;;;;;;14.40;90.00;;;;;;4949987;29;19938;-96
2023/05/10 13:32:29;;;;;;;;;;;14.40;89.50;;;;;;4960721;29;19914;-96
2023/05/10 13:34:56;;;;;;;;;;;14.40;89.60;;;;;;4941554;29;19910;-96
2023/05/10 13:37:24;;;;;;;;;;;14.40;89.80;;;;;;4940028;29;19935;-96
2023/05/10 13:39:51;;;;;;;;;;;14.40;90.00;;;;;;4940332;29;19911;-96
2023/05/10 13:44:54;;;;;;;;;;;14.40;90.00;;;;;;5236452;23;19927;-96
2023/05/10 13:47:24;;;;;;;;;;;14.40;90.80;;;;;;4961152;29;19922;-96
2023/05/10 13:49:52;;;;;;;;;;;14.40;90.50;;;;;;4957538;29;19935;-96
2023/05/10 13:52:21;;;;;;;;;;;14.40;90.30;;;;;;4956288;29;19911;-96
2023/05/10 13:54:51;;;;;;;;;;;14.40;90.60;;;;;;4960533;29;19911;-96
2023/05/10 13:57:18;;;;;;;;;;;14.40;90.30;;;;;;4958540;29;19970;-96
2023/05/10 13:59:44;;;;;;;;;;;14.40;90.10;;;;;;4953089;29;19915;-96
2023/05/10 14:02:12;;;;;;;;;;;14.40;90.50;;;;;;4970432;28;20013;-96
2023/05/10 14:04:38;;;;;;;;;;;14.40;90.30;;;;;;4953983;29;19917;-96
2023/05/10 14:07:04;;;;;;;;;;;14.40;90.50;;;;;;4954347;29;19954;-96
2023/05/10 14:09:30;;;;;;;;;;;14.40;90.50;;;;;;4954288;29;19918;-96
2023/05/10 14:11:56;;;;;;;;;;;14.50;90.80;;;;;;4969159;29;19910;-96
2023/05/10 14:14:21;;;;;;;;;;;14.40;90.70;;;;;;4951169;29;19962;-96
2023/05/10 14:16:47;;;;;;;;;;;14.50;90.70;;;;;;4968022;29;19918;-96
2023/05/10 14:19:13;;;;;;;;;;;14.50;90.80;;;;;;4949153;29;19997;-96
2023/05/10 14:21:38;;;;;;;;;;;14.50;90.70;;;;;;4964307;29;19922;-96
2023/05/10 14:24:04;;;;;;;;;;;14.40;90.70;;;;;;4946824;29;19951;-96
2023/05/10 14:26:30;;;;;;;;;;;14.50;90.80;;;;;;4965404;29;19914;-96
2023/05/10 14:28:56;;;;;;;;;;;14.40;90.40;;;;;;4961857;29;19912;-96
2023/05/10 14:31:24;;;;;;;;;;;14.40;90.20;;;;;;4961896;29;20302;-96
2023/05/10 14:33:50;;;;;;;;;;;14.40;90.40;;;;;;4949799;29;19911;-96
2023/05/10 14:36:17;;;;;;;;;;;14.60;90.10;;;;;;4946313;29;19918;-96